Terminal Aerodrome Forecast
Issued by NWS Huntsville, AL

Home | Current Version | Previous Version | Text Only | Print | Product List | Glossary On
Versions: 1 2 3 4 5 6 7 8 9 10 11 12 13 14 15 16 17 18 19 20 21 22 23 24 25 26 27 28 29 30 31 32 33 34 35 36
000
FTUS44 KHUN 230933 AAA
TAFMSL
TAF AMD
KMSL 230933Z 2310/2406 00000KT 5SM BR SCT090
      TEMPO 2310/2312 2SM BR SCT007
     FM231500 20005KT P6SM VCSH BKN050
      TEMPO 2320/2324 5SM -TSRA BR BKN025CB
     FM240200 00000KT P6SM SCT100=

USA.gov is the U.S. government's official web portal to all federal, state and local government web resources and services.